sensor_id;sensor_type;location;lat;lon;timestamp;pressure;altitude;pressure_sealevel;temperature;humidity
25869;BME280;13688;53.154;18.136;2023-04-05T00:02:13;101703.36;;;-4.47;78.09
25869;BME280;13688;53.154;18.136;2023-04-05T00:07:37;101691.11;;;-4.54;78.09
25869;BME280;13688;53.154;18.136;2023-04-05T00:13:03;101691.11;;;-4.56;78.25
25869;BME280;13688;53.154;18.136;2023-04-05T00:18:26;101682.38;;;-4.58;78.47
25869;BME280;13688;53.154;18.136;2023-04-05T00:23:55;101682.38;;;-4.70;78.72
25869;BME280;13688;53.154;18.136;2023-04-05T00:29:14;101673.63;;;-4.66;79.07
25869;BME280;13688;53.154;18.136;2023-04-05T00:34:36;101670.12;;;-4.56;79.25
25869;BME280;13688;53.154;18.136;2023-04-05T00:39:59;101659.63;;;-4.57;79.23
25869;BME280;13688;53.154;18.136;2023-04-05T00:45:22;101656.12;;;-4.47;79.06
25869;BME280;13688;53.154;18.136;2023-04-05T00:50:45;101653.52;;;-4.59;78.78
25869;BME280;13688;53.154;18.136;2023-04-05T00:56:09;101654.41;;;-4.82;78.61
25869;BME280;13688;53.154;18.136;2023-04-05T01:01:33;101663.14;;;-4.92;78.62
25869;BME280;13688;53.154;18.136;2023-04-05T01:12:51;101652.53;;;-4.02;78.78
25869;BME280;13688;53.154;18.136;2023-04-05T01:18:14;101646.14;;;-3.43;76.78
25869;BME280;13688;53.154;18.136;2023-04-05T01:29:19;101648.62;;;-3.20;71.41
25869;BME280;13688;53.154;18.136;2023-04-05T01:35:00;101639.09;;;-3.39;70.33
25869;BME280;13688;53.154;18.136;2023-04-05T01:40:23;101644.52;;;-3.65;70.67
25869;BME280;13688;53.154;18.136;2023-04-05T01:45:48;101636.66;;;-3.78;71.77
25869;BME280;13688;53.154;18.136;2023-04-05T01:51:11;101638.47;;;-3.84;72.87
25869;BME280;13688;53.154;18.136;2023-04-05T01:56:34;101634.91;;;-3.77;73.61
25869;BME280;13688;53.154;18.136;2023-04-05T02:01:57;101631.31;;;-3.55;73.37
25869;BME280;13688;53.154;18.136;2023-04-05T02:07:19;101624.16;;;-3.31;71.94
25869;BME280;13688;53.154;18.136;2023-04-05T02:12:42;101619.83;;;-3.37;70.47
25869;BME280;13688;53.154;18.136;2023-04-05T02:18:05;101631.17;;;-3.32;69.52
25869;BME280;13688;53.154;18.136;2023-04-05T02:23:38;101620.63;;;-3.26;68.57
25869;BME280;13688;53.154;18.136;2023-04-05T02:29:00;101619.81;;;-3.35;69.01
25869;BME280;13688;53.154;18.136;2023-04-05T02:34:22;101619.83;;;-3.37;68.97
25869;BME280;13688;53.154;18.136;2023-04-05T02:39:46;101619.87;;;-3.44;69.01
25869;BME280;13688;53.154;18.136;2023-04-05T02:45:09;101620.77;;;-3.52;69.21
25869;BME280;13688;53.154;18.136;2023-04-05T02:50:32;101613.79;;;-3.54;69.46
25869;BME280;13688;53.154;18.136;2023-04-05T02:55:58;101612.06;;;-3.57;69.67
25869;BME280;13688;53.154;18.136;2023-04-05T03:01:23;101617.30;;;-3.55;69.97
25869;BME280;13688;53.154;18.136;2023-04-05T03:06:46;101615.68;;;-3.87;70.27
25869;BME280;13688;53.154;18.136;2023-04-05T03:12:10;101607.92;;;-4.17;71.38
25869;BME280;13688;53.154;18.136;2023-04-05T03:17:32;101604.45;;;-4.27;72.75
25869;BME280;13688;53.154;18.136;2023-04-05T03:22:55;101616.73;;;-4.40;74.03
25869;BME280;13688;53.154;18.136;2023-04-05T03:28:17;101614.09;;;-4.24;75.15
25869;BME280;13688;53.154;18.136;2023-04-05T03:33:52;101603.51;;;-4.08;74.89
25869;BME280;13688;53.154;18.136;2023-04-05T03:39:15;101609.58;;;-3.90;75.74
25869;BME280;13688;53.154;18.136;2023-04-05T03:44:37;101612.95;;;-3.62;75.29
25869;BME280;13688;53.154;18.136;2023-04-05T03:50:00;101611.10;;;-3.48;74.42
25869;BME280;13688;53.154;18.136;2023-04-05T03:55:23;101609.34;;;-3.44;73.61
25869;BME280;13688;53.154;18.136;2023-04-05T04:00:46;101604.08;;;-3.43;73.13
25869;BME280;13688;53.154;18.136;2023-04-05T04:06:09;101604.09;;;-3.49;73.05
25869;BME280;13688;53.154;18.136;2023-04-05T04:11:34;101605.88;;;-3.51;73.18
25869;BME280;13688;53.154;18.136;2023-04-05T04:16:56;101608.50;;;-3.51;73.21
25869;BME280;13688;53.154;18.136;2023-04-05T04:22:19;101611.09;;;-3.43;73.09
25869;BME280;13688;53.154;18.136;2023-04-05T04:27:47;101617.17;;;-3.38;72.84
25869;BME280;13688;53.154;18.136;2023-04-05T04:33:10;101612.77;;;-3.32;72.47
25869;BME280;13688;53.154;18.136;2023-04-05T04:38:32;101613.61;;;-3.28;72.08
25869;BME280;13688;53.154;18.136;2023-04-05T04:43:56;101608.28;;;-3.19;71.62
25869;BME280;13688;53.154;18.136;2023-04-05T04:49:21;101598.60;;;-3.12;71.05
25869;BME280;13688;53.154;18.136;2023-04-05T04:54:43;101603.80;;;-3.03;70.44
25869;BME280;13688;53.154;18.136;2023-04-05T05:00:06;101607.24;;;-2.95;69.85
25869;BME280;13688;53.154;18.136;2023-04-05T05:05:30;101609.78;;;-2.84;69.25
25869;BME280;13688;53.154;18.136;2023-04-05T05:10:59;101615.84;;;-2.75;68.64
25869;BME280;13688;53.154;18.136;2023-04-05T05:16:22;101613.98;;;-2.64;68.22
25869;BME280;13688;53.154;18.136;2023-04-05T05:21:45;101614.78;;;-2.55;68.02
25869;BME280;13688;53.154;18.136;2023-04-05T05:27:08;101611.16;;;-2.44;67.89
25869;BME280;13688;53.154;18.136;2023-04-05T05:32:30;101618.05;;;-2.32;67.67
25869;BME280;13688;53.154;18.136;2023-04-05T05:37:53;101624.06;;;-2.18;67.29
25869;BME280;13688;53.154;18.136;2023-04-05T05:43:17;101623.02;;;-2.05;66.78
25869;BME280;13688;53.154;18.136;2023-04-05T05:48:39;101625.53;;;-1.94;66.42
25869;BME280;13688;53.154;18.136;2023-04-05T05:54:02;101621.77;;;-1.75;65.86
25869;BME280;13688;53.154;18.136;2023-04-05T05:59:25;101621.62;;;-1.61;64.95
25869;BME280;13688;53.154;18.136;2023-04-05T06:04:47;101619.55;;;-1.39;63.50
25869;BME280;13688;53.154;18.136;2023-04-05T06:10:11;101623.66;;;-1.20;62.27
25869;BME280;13688;53.154;18.136;2023-04-05T06:15:34;101619.06;;;-1.05;61.22
25869;BME280;13688;53.154;18.136;2023-04-05T06:20:59;101612.53;;;-0.83;60.37
25869;BME280;13688;53.154;18.136;2023-04-05T06:26:23;101622.82;;;-0.68;59.67
25869;BME280;13688;53.154;18.136;2023-04-05T06:31:46;101624.38;;;-0.54;59.12
25869;BME280;13688;53.154;18.136;2023-04-05T06:37:10;101621.61;;;-0.48;58.79
25869;BME280;13688;53.154;18.136;2023-04-05T06:42:34;101623.91;;;-0.30;58.83
25869;BME280;13688;53.154;18.136;2023-04-05T06:47:57;101623.53;;;-0.09;58.44
25869;BME280;13688;53.154;18.136;2023-04-05T06:53:21;101625.71;;;0.14;57.46
25869;BME280;13688;53.154;18.136;2023-04-05T06:58:44;101621.90;;;0.27;56.17
25869;BME280;13688;53.154;18.136;2023-04-05T07:04:09;101625.11;;;0.43;55.23
25869;BME280;13688;53.154;18.136;2023-04-05T07:09:33;101620.45;;;0.54;53.87
25869;BME280;13688;53.154;18.136;2023-04-05T07:14:58;101616.40;;;0.77;52.95
25869;BME280;13688;53.154;18.136;2023-04-05T07:20:21;101615.61;;;0.73;51.62
25869;BME280;13688;53.154;18.136;2023-04-05T07:25:45;101608.89;;;0.97;50.44
25869;BME280;13688;53.154;18.136;2023-04-05T07:31:08;101611.45;;;1.00;48.70
25869;BME280;13688;53.154;18.136;2023-04-05T07:36:30;101608.02;;;0.97;47.69
25869;BME280;13688;53.154;18.136;2023-04-05T07:41:53;101606.67;;;1.16;47.00
25869;BME280;13688;53.154;18.136;2023-04-05T07:47:17;101600.26;;;1.59;46.75
25869;BME280;13688;53.154;18.136;2023-04-05T07:52:40;101598.47;;;1.59;45.65
25869;BME280;13688;53.154;18.136;2023-04-05T07:58:03;101594.81;;;1.63;45.53
25869;BME280;13688;53.154;18.136;2023-04-05T08:03:26;101589.31;;;1.38;45.34
25869;BME280;13688;53.154;18.136;2023-04-05T08:08:49;101594.51;;;1.76;46.09
25869;BME280;13688;53.154;18.136;2023-04-05T08:14:15;101587.83;;;1.93;45.27
25869;BME280;13688;53.154;18.136;2023-04-05T08:19:37;101596.34;;;2.05;45.80
25869;BME280;13688;53.154;18.136;2023-04-05T08:25:01;101592.30;;;2.22;45.74
25869;BME280;13688;53.154;18.136;2023-04-05T08:30:24;101587.28;;;2.12;44.78
25869;BME280;13688;53.154;18.136;2023-04-05T08:35:48;101591.12;;;2.31;45.22
25869;BME280;13688;53.154;18.136;2023-04-05T08:41:22;101587.58;;;2.62;45.08
25869;BME280;13688;53.154;18.136;2023-04-05T08:46:53;101589.87;;;2.44;44.28
25869;BME280;13688;53.154;18.136;2023-04-05T08:52:17;101592.20;;;2.25;45.09
25869;BME280;13688;53.154;18.136;2023-04-05T08:57:43;101596.46;;;2.61;45.33
25869;BME280;13688;53.154;18.136;2023-04-05T09:03:12;101594.85;;;2.25;44.70
25869;BME280;13688;53.154;18.136;2023-04-05T09:08:37;101607.22;;;1.95;44.51
25869;BME280;13688;53.154;18.136;2023-04-05T09:14:03;101604.52;;;1.97;44.82
25869;BME280;13688;53.154;18.136;2023-04-05T09:19:26;101606.91;;;2.06;45.16
25869;BME280;13688;53.154;18.136;2023-04-05T09:24:50;101606.39;;;2.54;45.56
25869;BME280;13688;53.154;18.136;2023-04-05T09:30:21;101604.41;;;2.88;45.43
25869;BME280;13688;53.154;18.136;2023-04-05T09:35:46;101602.17;;;3.56;44.50
25869;BME280;13688;53.154;18.136;2023-04-05T09:41:12;101600.61;;;4.00;43.50
25869;BME280;13688;53.154;18.136;2023-04-05T09:46:36;101594.36;;;4.24;43.82
25869;BME280;13688;53.154;18.136;2023-04-05T09:51:59;101604.54;;;4.60;42.57
25869;BME280;13688;53.154;18.136;2023-04-05T09:57:24;101594.55;;;4.20;42.08
25869;BME280;13688;53.154;18.136;2023-04-05T10:02:53;101602.17;;;4.52;39.90
25869;BME280;13688;53.154;18.136;2023-04-05T10:08:17;101598.49;;;2.80;41.47
25869;BME280;13688;53.154;18.136;2023-04-05T10:13:40;101604.92;;;2.44;42.37
25869;BME280;13688;53.154;18.136;2023-04-05T10:19:04;101605.25;;;2.33;42.27
25869;BME280;13688;53.154;18.136;2023-04-05T10:24:39;101595.09;;;2.75;41.77
25869;BME280;13688;53.154;18.136;2023-04-05T10:30:08;101597.20;;;3.20;39.82
25869;BME280;13688;53.154;18.136;2023-04-05T10:41:43;101588.70;;;4.79;37.68
25869;BME280;13688;53.154;18.136;2023-04-05T10:47:08;101591.77;;;7.09;35.03
25869;BME280;13688;53.154;18.136;2023-04-05T10:52:34;101594.16;;;7.15;34.95
25869;BME280;13688;53.154;18.136;2023-04-05T10:57:59;101580.23;;;7.78;31.68
25869;BME280;13688;53.154;18.136;2023-04-05T11:03:40;101567.48;;;8.65;31.30
25869;BME280;13688;53.154;18.136;2023-04-05T11:14:42;101569.42;;;7.97;31.61
25869;BME280;13688;53.154;18.136;2023-04-05T11:20:10;101580.09;;;5.99;33.59
25869;BME280;13688;53.154;18.136;2023-04-05T11:25:36;101571.67;;;6.08;36.06
25869;BME280;13688;53.154;18.136;2023-04-05T11:31:10;101574.72;;;6.76;35.39
25869;BME280;13688;53.154;18.136;2023-04-05T11:36:44;101574.02;;;7.26;34.38
25869;BME280;13688;53.154;18.136;2023-04-05T11:42:10;101564.86;;;9.11;32.24
25869;BME280;13688;53.154;18.136;2023-04-05T11:47:35;101565.58;;;10.17;30.31
25869;BME280;13688;53.154;18.136;2023-04-05T11:53:14;101563.53;;;11.05;29.46
25869;BME280;13688;53.154;18.136;2023-04-05T11:58:37;101559.27;;;8.52;28.99
25869;BME280;13688;53.154;18.136;2023-04-05T12:04:01;101569.05;;;6.82;32.88
25869;BME280;13688;53.154;18.136;2023-04-05T12:09:23;101562.48;;;6.14;33.97
25869;BME280;13688;53.154;18.136;2023-04-05T12:14:46;101561.55;;;6.15;35.77
25869;BME280;13688;53.154;18.136;2023-04-05T12:20:12;101559.53;;;5.60;36.55
25869;BME280;13688;53.154;18.136;2023-04-05T12:25:39;101551.48;;;4.32;38.45
25869;BME280;13688;53.154;18.136;2023-04-05T12:31:02;101561.20;;;4.33;39.31
25869;BME280;13688;53.154;18.136;2023-04-05T12:36:29;101540.75;;;4.79;38.25
25869;BME280;13688;53.154;18.136;2023-04-05T12:41:59;101542.33;;;4.39;38.19
25869;BME280;13688;53.154;18.136;2023-04-05T12:47:22;101545.59;;;5.33;39.98
25869;BME280;13688;53.154;18.136;2023-04-05T12:52:53;101537.26;;;5.61;37.57
25869;BME280;13688;53.154;18.136;2023-04-05T12:58:18;101536.65;;;5.55;37.16
25869;BME280;13688;53.154;18.136;2023-04-05T13:03:49;101542.16;;;6.30;37.05
25869;BME280;13688;53.154;18.136;2023-04-05T13:09:14;101544.25;;;5.64;37.61
25869;BME280;13688;53.154;18.136;2023-04-05T13:14:37;101533.84;;;5.58;37.99
25869;BME280;13688;53.154;18.136;2023-04-05T13:19:59;101532.23;;;5.74;38.01
25869;BME280;13688;53.154;18.136;2023-04-05T13:25:23;101532.01;;;5.79;38.75
25869;BME280;13688;53.154;18.136;2023-04-05T13:30:45;101540.40;;;5.51;38.96
25869;BME280;13688;53.154;18.136;2023-04-05T13:36:08;101528.80;;;5.31;39.27
25869;BME280;13688;53.154;18.136;2023-04-05T13:41:31;101527.08;;;5.08;39.68
25869;BME280;13688;53.154;18.136;2023-04-05T13:46:54;101543.62;;;5.16;39.55
25869;BME280;13688;53.154;18.136;2023-04-05T13:52:18;101531.76;;;5.03;40.15
25869;BME280;13688;53.154;18.136;2023-04-05T13:57:41;101537.19;;;5.00;40.61
25869;BME280;13688;53.154;18.136;2023-04-05T14:03:03;101537.64;;;4.89;40.60
25869;BME280;13688;53.154;18.136;2023-04-05T14:08:27;101531.82;;;4.80;41.37
25869;BME280;13688;53.154;18.136;2023-04-05T14:13:49;101529.59;;;4.69;41.53
25869;BME280;13688;53.154;18.136;2023-04-05T14:19:12;101532.46;;;4.65;42.20
25869;BME280;13688;53.154;18.136;2023-04-05T14:24:34;101538.00;;;4.13;41.44
25869;BME280;13688;53.154;18.136;2023-04-05T14:29:58;101542.80;;;4.03;41.83
25869;BME280;13688;53.154;18.136;2023-04-05T14:35:22;101544.55;;;4.73;42.06
25869;BME280;13688;53.154;18.136;2023-04-05T14:40:44;101547.70;;;4.83;41.44
25869;BME280;13688;53.154;18.136;2023-04-05T14:46:07;101544.11;;;5.46;39.29
25869;BME280;13688;53.154;18.136;2023-04-05T14:51:31;101542.23;;;6.83;39.46
25869;BME280;13688;53.154;18.136;2023-04-05T14:56:54;101548.73;;;7.14;36.31
25869;BME280;13688;53.154;18.136;2023-04-05T15:02:16;101543.77;;;5.74;37.62
25869;BME280;13688;53.154;18.136;2023-04-05T15:07:39;101545.91;;;5.46;39.49
25869;BME280;13688;53.154;18.136;2023-04-05T15:13:02;101548.92;;;5.79;39.23
25869;BME280;13688;53.154;18.136;2023-04-05T15:18:24;101552.41;;;6.94;37.53
25869;BME280;13688;53.154;18.136;2023-04-05T15:23:47;101554.41;;;7.77;35.66
25869;BME280;13688;53.154;18.136;2023-04-05T15:29:10;101550.08;;;6.69;35.17
25869;BME280;13688;53.154;18.136;2023-04-05T15:34:34;101561.05;;;6.25;36.72
25869;BME280;13688;53.154;18.136;2023-04-05T15:39:56;101554.87;;;4.81;39.49
25869;BME280;13688;53.154;18.136;2023-04-05T15:45:19;101560.62;;;4.70;41.80
25869;BME280;13688;53.154;18.136;2023-04-05T15:50:42;101559.69;;;4.49;43.80
25869;BME280;13688;53.154;18.136;2023-04-05T15:56:05;101568.58;;;4.26;43.93
25869;BME280;13688;53.154;18.136;2023-04-05T16:01:27;101570.09;;;3.85;45.12
25869;BME280;13688;53.154;18.136;2023-04-05T16:06:53;101573.44;;;4.15;45.83
25869;BME280;13688;53.154;18.136;2023-04-05T16:12:20;101577.92;;;3.90;46.03
25869;BME280;13688;53.154;18.136;2023-04-05T16:17:43;101577.98;;;3.88;47.97
25869;BME280;13688;53.154;18.136;2023-04-05T16:23:08;101585.11;;;4.80;46.85
25869;BME280;13688;53.154;18.136;2023-04-05T16:28:31;101578.17;;;4.98;45.93
25869;BME280;13688;53.154;18.136;2023-04-05T16:33:53;101575.51;;;4.98;44.54
25869;BME280;13688;53.154;18.136;2023-04-05T16:39:17;101573.31;;;4.18;45.86
25869;BME280;13688;53.154;18.136;2023-04-05T16:44:40;101582.69;;;3.55;46.98
25869;BME280;13688;53.154;18.136;2023-04-05T16:50:03;101586.01;;;3.10;48.47
25869;BME280;13688;53.154;18.136;2023-04-05T16:55:27;101587.25;;;2.99;49.55
25869;BME280;13688;53.154;18.136;2023-04-05T17:00:50;101592.78;;;2.93;50.30
25869;BME280;13688;53.154;18.136;2023-04-05T17:06:13;101601.91;;;2.84;50.66
25869;BME280;13688;53.154;18.136;2023-04-05T17:11:37;101605.24;;;2.63;51.37
25869;BME280;13688;53.154;18.136;2023-04-05T17:17:01;101597.45;;;2.56;51.77
25869;BME280;13688;53.154;18.136;2023-04-05T17:22:24;101606.71;;;2.43;52.52
25869;BME280;13688;53.154;18.136;2023-04-05T17:27:46;101614.95;;;2.34;53.00
25869;BME280;13688;53.154;18.136;2023-04-05T17:33:09;101613.33;;;2.28;53.70
25869;BME280;13688;53.154;18.136;2023-04-05T17:38:31;101621.75;;;2.13;54.38
25869;BME280;13688;53.154;18.136;2023-04-05T17:43:55;101623.80;;;2.02;54.98
25869;BME280;13688;53.154;18.136;2023-04-05T17:49:17;101622.27;;;1.95;55.72
25869;BME280;13688;53.154;18.136;2023-04-05T17:54:41;101630.33;;;1.90;55.95
25869;BME280;13688;53.154;18.136;2023-04-05T18:00:03;101634.03;;;1.85;56.18
25869;BME280;13688;53.154;18.136;2023-04-05T18:05:27;101631.34;;;1.86;56.79
25869;BME280;13688;53.154;18.136;2023-04-05T18:10:56;101639.48;;;1.79;57.74
25869;BME280;13688;53.154;18.136;2023-04-05T18:16:19;101634.47;;;1.68;58.15
25869;BME280;13688;53.154;18.136;2023-04-05T18:21:41;101638.19;;;1.61;58.60
25869;BME280;13688;53.154;18.136;2023-04-05T18:27:05;101640.84;;;1.61;59.03
25869;BME280;13688;53.154;18.136;2023-04-05T18:32:27;101650.80;;;1.51;59.55
25869;BME280;13688;53.154;18.136;2023-04-05T18:37:50;101653.27;;;1.59;60.14
25869;BME280;13688;53.154;18.136;2023-04-05T18:43:13;101658.67;;;1.54;60.08
25869;BME280;13688;53.154;18.136;2023-04-05T18:48:36;101660.67;;;1.46;59.67
25869;BME280;13688;53.154;18.136;2023-04-05T18:54:04;101658.03;;;1.44;59.50
25869;BME280;13688;53.154;18.136;2023-04-05T18:59:27;101664.24;;;1.43;59.95
25869;BME280;13688;53.154;18.136;2023-04-05T19:04:50;101665.16;;;1.42;60.04
25869;BME280;13688;53.154;18.136;2023-04-05T19:10:14;101669.67;;;1.39;60.31
25869;BME280;13688;53.154;18.136;2023-04-05T19:15:36;101669.76;;;1.36;60.70
25869;BME280;13688;53.154;18.136;2023-04-05T19:21:06;101668.07;;;1.32;60.99
25869;BME280;13688;53.154;18.136;2023-04-05T19:26:29;101678.75;;;1.29;61.14
25869;BME280;13688;53.154;18.136;2023-04-05T19:31:52;101674.63;;;1.17;61.40
25869;BME280;13688;53.154;18.136;2023-04-05T19:37:16;101671.23;;;1.10;61.86
25869;BME280;13688;53.154;18.136;2023-04-05T19:42:39;101681.22;;;0.99;62.33
25869;BME280;13688;53.154;18.136;2023-04-05T19:48:02;101683.20;;;0.90;62.57
25869;BME280;13688;53.154;18.136;2023-04-05T19:53:51;101692.17;;;0.82;63.12
25869;BME280;13688;53.154;18.136;2023-04-05T19:59:29;101685.23;;;0.77;63.67
25869;BME280;13688;53.154;18.136;2023-04-05T20:04:52;101684.52;;;0.70;64.08
25869;BME280;13688;53.154;18.136;2023-04-05T20:10:16;101687.35;;;0.61;64.54
25869;BME280;13688;53.154;18.136;2023-04-05T20:15:41;101682.77;;;0.69;64.56
25869;BME280;13688;53.154;18.136;2023-04-05T20:21:05;101677.52;;;0.68;64.19
25869;BME280;13688;53.154;18.136;2023-04-05T20:26:30;101677.28;;;0.78;64.43
25869;BME280;13688;53.154;18.136;2023-04-05T20:31:54;101672.15;;;0.71;63.59
25869;BME280;13688;53.154;18.136;2023-04-05T20:37:17;101668.67;;;0.67;62.93
25869;BME280;13688;53.154;18.136;2023-04-05T20:42:39;101670.49;;;0.65;62.35
25869;BME280;13688;53.154;18.136;2023-04-05T20:48:02;101661.68;;;0.65;62.14
25869;BME280;13688;53.154;18.136;2023-04-05T20:53:26;101660.81;;;0.64;62.06
25869;BME280;13688;53.154;18.136;2023-04-05T20:58:48;101660.92;;;0.60;62.07
25869;BME280;13688;53.154;18.136;2023-04-05T21:04:11;101664.28;;;0.68;62.26
25869;BME280;13688;53.154;18.136;2023-04-05T21:09:35;101659.66;;;0.76;62.10
25869;BME280;13688;53.154;18.136;2023-04-05T21:14:57;101658.71;;;0.80;61.44
25869;BME280;13688;53.154;18.136;2023-04-05T21:20:20;101656.02;;;0.81;60.96
25869;BME280;13688;53.154;18.136;2023-04-05T21:25:44;101655.03;;;0.87;60.56
25869;BME280;13688;53.154;18.136;2023-04-05T21:31:07;101649.78;;;0.84;59.76
25869;BME280;13688;53.154;18.136;2023-04-05T21:36:30;101646.67;;;0.65;59.63
25869;BME280;13688;53.154;18.136;2023-04-05T21:41:52;101649.48;;;0.57;59.80
25869;BME280;13688;53.154;18.136;2023-04-05T21:47:15;101640.34;;;0.32;59.97
25869;BME280;13688;53.154;18.136;2023-04-05T21:52:37;101646.17;;;0.05;60.45
25869;BME280;13688;53.154;18.136;2023-04-05T21:57:59;101644.95;;;-0.24;61.00
25869;BME280;13688;53.154;18.136;2023-04-05T22:03:22;101646.99;;;-0.40;61.71
25869;BME280;13688;53.154;18.136;2023-04-05T22:08:44;101644.85;;;-0.67;62.40
25869;BME280;13688;53.154;18.136;2023-04-05T22:14:07;101652.34;;;-0.95;63.18
25869;BME280;13688;53.154;18.136;2023-04-05T22:19:29;101664.34;;;-1.36;63.83
25869;BME280;13688;53.154;18.136;2023-04-05T22:24:52;101655.94;;;-1.65;64.91
25869;BME280;13688;53.154;18.136;2023-04-05T22:30:15;101660.52;;;-1.80;65.98
25869;BME280;13688;53.154;18.136;2023-04-05T22:35:39;101659.90;;;-2.02;66.64
25869;BME280;13688;53.154;18.136;2023-04-05T22:41:01;101665.23;;;-2.08;67.34
25869;BME280;13688;53.154;18.136;2023-04-05T22:46:25;101669.72;;;-2.17;67.83
25869;BME280;13688;53.154;18.136;2023-04-05T22:51:47;101676.95;;;-2.38;68.21
25869;BME280;13688;53.154;18.136;2023-04-05T22:57:10;101669.22;;;-2.57;68.84
25869;BME280;13688;53.154;18.136;2023-04-05T23:02:33;101672.84;;;-2.69;69.50
25869;BME280;13688;53.154;18.136;2023-04-05T23:07:56;101677.05;;;-2.51;70.26
25869;BME280;13688;53.154;18.136;2023-04-05T23:13:19;101678.01;;;-2.58;70.56
25869;BME280;13688;53.154;18.136;2023-04-05T23:18:41;101677.21;;;-2.68;70.88
25869;BME280;13688;53.154;18.136;2023-04-05T23:24:03;101687.77;;;-2.73;71.20
25869;BME280;13688;53.154;18.136;2023-04-05T23:29:26;101686.88;;;-2.72;71.77
25869;BME280;13688;53.154;18.136;2023-04-05T23:34:48;101681.53;;;-2.60;72.14
25869;BME280;13688;53.154;18.136;2023-04-05T23:40:12;101681.38;;;-2.44;72.35
25869;BME280;13688;53.154;18.136;2023-04-05T23:45:35;101682.91;;;-2.19;72.68
25869;BME280;13688;53.154;18.136;2023-04-05T23:50:58;101690.75;;;-2.14;72.86
25869;BME280;13688;53.154;18.136;2023-04-05T23:56:20;101689.77;;;-2.04;72.91
